• pl
  • eng

Awiacja
Kliknij na pogrubioną czerwoną nazwę, aby odkodować depeszę. 22:31 17.10.2018
  • WIND
  • SIGNIFICANT EURO
  • SIGNIFICANT
  • SIGMET
  • AIRMET
  • TAF FC
  • TAF FT
  • METAR GG30
  • METAR GG00


METAR EPBY 172030Z 12004KT CAVOK 12/07 Q1020 =

METAR EPGD 172030Z VRB02KT 5000 BR NSC 12/08 Q1021 =

METAR EPKK 172030Z 05003KT CAVOK 13/08 Q1021 =

METAR EPKT 172030Z VRB02KT CAVOK 11/09 Q1021 =

METAR EPLB 172030Z 08002KT 7000 NSC 07/06 Q1022 =

METAR EPLL 172030Z VRB02KT 9000 NSC 13/09 Q1021 =

METAR EPMO 172030Z VRB01KT CAVOK 09/06 Q1021 =

METAR EPPO 172030Z 08003KT 9000 NSC 10/07 Q1020 =

METAR EPRA 172030Z NIL=

METAR EPRZ 172030Z VRB02KT 7000 NSC 09/05 Q1021 =

METAR EPSC 172030Z VRB02KT 8000 NSC 09/09 Q1020 =

METAR EPSY 172030Z NIL=

METAR EPWA 172030Z 14003KT CAVOK 08/06 Q1021 NOSIG=

METAR EPWR 172030Z 13003KT CAVOK 10/08 Q1020 =

METAR EPZG 172030Z 00000KT 2100 BCFG BR NSC 08/08 Q1020 =
 METAR EPBY
Lokalizacja:EPBY Bydgoszcz Szwederowo
Czas:20:30 UTC
Średni kierunek wiatru:120 °
Średnia prędkość wiatru:4 węzłów
CAVOK:Widzialność 10 km i więcej, zjawisko: NIL, zachmurzenie: NSC
Temperatura powietrza:12 °C
Temperatura punktu rosy:7 °C
Ciśnienie QNH:1020 hPa
Awiacja.imgw.pl jest pogodowym serwisem informacyjnym
Instytutu Meteorologii i Gospodarki Wodnej Państwowego Instytutu Badawczego.
Copyright IMGW PIB 2009-2011© Wszelkie prawa zastrzeżone.